sensor_id;sensor_type;location;lat;lon;timestamp;P1;durP1;ratioP1;P2;durP2;ratioP2
50495;SDS011;38806;51.554;5.704;2023-04-03T00:01:16;11.45;;;6.35;;
50495;SDS011;38806;51.554;5.704;2023-04-03T00:03:17;10.80;;;6.65;;
50495;SDS011;38806;51.554;5.704;2023-04-03T00:05:17;10.32;;;6.15;;
50495;SDS011;38806;51.554;5.704;2023-04-03T00:07:17;13.52;;;7.05;;
50495;SDS011;38806;51.554;5.704;2023-04-03T00:09:17;9.93;;;6.25;;
50495;SDS011;38806;51.554;5.704;2023-04-03T00:11:18;10.52;;;6.93;;
50495;SDS011;38806;51.554;5.704;2023-04-03T00:13:18;19.02;;;10.60;;
50495;SDS011;38806;51.554;5.704;2023-04-03T00:15:18;16.52;;;9.80;;
50495;SDS011;38806;51.554;5.704;2023-04-03T00:17:19;28.13;;;11.80;;
50495;SDS011;38806;51.554;5.704;2023-04-03T00:19:19;14.13;;;8.73;;
50495;SDS011;38806;51.554;5.704;2023-04-03T00:21:19;15.30;;;9.32;;
50495;SDS011;38806;51.554;5.704;2023-04-03T00:23:20;12.88;;;9.38;;
50495;SDS011;38806;51.554;5.704;2023-04-03T00:25:20;14.25;;;8.55;;
50495;SDS011;38806;51.554;5.704;2023-04-03T00:27:21;12.27;;;7.60;;
50495;SDS011;38806;51.554;5.704;2023-04-03T00:29:21;13.85;;;8.55;;
50495;SDS011;38806;51.554;5.704;2023-04-03T00:31:21;10.02;;;7.38;;
50495;SDS011;38806;51.554;5.704;2023-04-03T00:33:22;16.23;;;8.05;;
50495;SDS011;38806;51.554;5.704;2023-04-03T00:35:23;14.45;;;8.88;;
50495;SDS011;38806;51.554;5.704;2023-04-03T00:37:23;15.10;;;8.98;;
50495;SDS011;38806;51.554;5.704;2023-04-03T00:39:24;12.63;;;8.70;;
50495;SDS011;38806;51.554;5.704;2023-04-03T00:41:24;16.63;;;9.10;;
50495;SDS011;38806;51.554;5.704;2023-04-03T00:43:25;14.20;;;8.48;;
50495;SDS011;38806;51.554;5.704;2023-04-03T00:45:33;12.93;;;9.32;;
50495;SDS011;38806;51.554;5.704;2023-04-03T00:47:34;19.02;;;10.77;;
50495;SDS011;38806;51.554;5.704;2023-04-03T00:49:35;14.07;;;8.75;;
50495;SDS011;38806;51.554;5.704;2023-04-03T00:51:36;12.70;;;9.23;;
50495;SDS011;38806;51.554;5.704;2023-04-03T00:53:40;13.93;;;8.90;;
50495;SDS011;38806;51.554;5.704;2023-04-03T00:55:42;13.63;;;8.30;;
50495;SDS011;38806;51.554;5.704;2023-04-03T00:57:42;11.45;;;7.82;;
50495;SDS011;38806;51.554;5.704;2023-04-03T00:59:48;15.70;;;9.13;;
50495;SDS011;38806;51.554;5.704;2023-04-03T01:01:49;13.65;;;8.18;;
50495;SDS011;38806;51.554;5.704;2023-04-03T01:03:50;15.70;;;8.75;;
50495;SDS011;38806;51.554;5.704;2023-04-03T01:05:51;11.27;;;7.28;;
50495;SDS011;38806;51.554;5.704;2023-04-03T01:07:51;13.00;;;9.02;;
50495;SDS011;38806;51.554;5.704;2023-04-03T01:09:53;18.13;;;8.48;;
50495;SDS011;38806;51.554;5.704;2023-04-03T01:12:12;17.63;;;8.93;;
50495;SDS011;38806;51.554;5.704;2023-04-03T01:14:12;16.02;;;7.85;;
50495;SDS011;38806;51.554;5.704;2023-04-03T01:16:12;14.50;;;8.02;;
50495;SDS011;38806;51.554;5.704;2023-04-03T01:18:12;14.90;;;9.25;;
50495;SDS011;38806;51.554;5.704;2023-04-03T01:22:30;10.43;;;7.35;;
50495;SDS011;38806;51.554;5.704;2023-04-03T01:26:33;18.63;;;8.25;;
50495;SDS011;38806;51.554;5.704;2023-04-03T01:28:34;11.18;;;6.97;;
50495;SDS011;38806;51.554;5.704;2023-04-03T01:30:36;13.00;;;7.70;;
50495;SDS011;38806;51.554;5.704;2023-04-03T01:32:38;15.63;;;8.85;;
50495;SDS011;38806;51.554;5.704;2023-04-03T01:34:38;12.20;;;7.60;;
50495;SDS011;38806;51.554;5.704;2023-04-03T01:36:38;10.38;;;6.32;;
50495;SDS011;38806;51.554;5.704;2023-04-03T01:38:38;16.05;;;8.32;;
50495;SDS011;38806;51.554;5.704;2023-04-03T01:40:39;10.73;;;7.47;;
50495;SDS011;38806;51.554;5.704;2023-04-03T01:42:39;14.55;;;7.70;;
50495;SDS011;38806;51.554;5.704;2023-04-03T01:44:39;11.98;;;7.25;;
50495;SDS011;38806;51.554;5.704;2023-04-03T01:46:39;14.73;;;8.50;;
50495;SDS011;38806;51.554;5.704;2023-04-03T01:48:41;15.60;;;7.57;;
50495;SDS011;38806;51.554;5.704;2023-04-03T01:50:41;10.55;;;7.85;;
50495;SDS011;38806;51.554;5.704;2023-04-03T01:52:41;11.35;;;7.10;;
50495;SDS011;38806;51.554;5.704;2023-04-03T01:54:41;11.63;;;7.80;;
50495;SDS011;38806;51.554;5.704;2023-04-03T01:56:42;15.02;;;7.80;;
50495;SDS011;38806;51.554;5.704;2023-04-03T01:58:42;14.52;;;8.90;;
50495;SDS011;38806;51.554;5.704;2023-04-03T02:00:42;10.82;;;7.38;;
50495;SDS011;38806;51.554;5.704;2023-04-03T02:02:42;14.35;;;8.18;;
50495;SDS011;38806;51.554;5.704;2023-04-03T02:04:43;14.98;;;8.50;;
50495;SDS011;38806;51.554;5.704;2023-04-03T02:06:43;14.25;;;7.60;;
50495;SDS011;38806;51.554;5.704;2023-04-03T02:08:43;16.13;;;7.80;;
50495;SDS011;38806;51.554;5.704;2023-04-03T02:10:52;12.07;;;7.57;;
50495;SDS011;38806;51.554;5.704;2023-04-03T02:12:52;13.93;;;7.53;;
50495;SDS011;38806;51.554;5.704;2023-04-03T02:14:52;12.65;;;8.13;;
50495;SDS011;38806;51.554;5.704;2023-04-03T02:16:53;10.73;;;7.07;;
50495;SDS011;38806;51.554;5.704;2023-04-03T02:18:53;10.20;;;6.53;;
50495;SDS011;38806;51.554;5.704;2023-04-03T02:20:53;12.15;;;6.72;;
50495;SDS011;38806;51.554;5.704;2023-04-03T02:22:53;13.32;;;7.95;;
50495;SDS011;38806;51.554;5.704;2023-04-03T02:24:53;14.50;;;7.90;;
50495;SDS011;38806;51.554;5.704;2023-04-03T02:26:54;12.45;;;7.07;;
50495;SDS011;38806;51.554;5.704;2023-04-03T02:28:54;14.38;;;8.73;;
50495;SDS011;38806;51.554;5.704;2023-04-03T02:30:54;12.77;;;7.93;;
50495;SDS011;38806;51.554;5.704;2023-04-03T02:32:55;10.90;;;6.80;;
50495;SDS011;38806;51.554;5.704;2023-04-03T02:34:55;10.63;;;7.13;;
50495;SDS011;38806;51.554;5.704;2023-04-03T02:36:56;9.52;;;6.55;;
50495;SDS011;38806;51.554;5.704;2023-04-03T02:38:56;14.60;;;7.05;;
50495;SDS011;38806;51.554;5.704;2023-04-03T02:40:59;10.05;;;7.88;;
50495;SDS011;38806;51.554;5.704;2023-04-03T02:43:00;13.73;;;8.32;;
50495;SDS011;38806;51.554;5.704;2023-04-03T02:45:00;13.65;;;7.35;;
50495;SDS011;38806;51.554;5.704;2023-04-03T02:47:00;12.40;;;7.18;;
50495;SDS011;38806;51.554;5.704;2023-04-03T02:49:00;14.52;;;7.43;;
50495;SDS011;38806;51.554;5.704;2023-04-03T02:51:01;15.43;;;7.18;;
50495;SDS011;38806;51.554;5.704;2023-04-03T02:53:01;12.82;;;8.82;;
50495;SDS011;38806;51.554;5.704;2023-04-03T02:55:01;11.43;;;8.27;;
50495;SDS011;38806;51.554;5.704;2023-04-03T02:57:01;9.45;;;6.18;;
50495;SDS011;38806;51.554;5.704;2023-04-03T02:59:02;10.45;;;6.25;;
50495;SDS011;38806;51.554;5.704;2023-04-03T03:01:02;12.00;;;6.47;;
50495;SDS011;38806;51.554;5.704;2023-04-03T03:03:03;13.45;;;7.10;;
50495;SDS011;38806;51.554;5.704;2023-04-03T03:05:04;14.75;;;9.88;;
50495;SDS011;38806;51.554;5.704;2023-04-03T03:07:04;16.38;;;8.73;;
50495;SDS011;38806;51.554;5.704;2023-04-03T03:09:04;11.75;;;7.10;;
50495;SDS011;38806;51.554;5.704;2023-04-03T03:11:05;10.32;;;6.68;;
50495;SDS011;38806;51.554;5.704;2023-04-03T03:13:06;11.05;;;6.72;;
50495;SDS011;38806;51.554;5.704;2023-04-03T03:15:06;16.73;;;8.05;;
50495;SDS011;38806;51.554;5.704;2023-04-03T03:17:06;15.93;;;8.05;;
50495;SDS011;38806;51.554;5.704;2023-04-03T03:19:06;11.55;;;6.75;;
50495;SDS011;38806;51.554;5.704;2023-04-03T03:21:08;15.13;;;6.05;;
50495;SDS011;38806;51.554;5.704;2023-04-03T03:23:09;13.05;;;7.95;;
50495;SDS011;38806;51.554;5.704;2023-04-03T03:25:09;10.88;;;6.82;;
50495;SDS011;38806;51.554;5.704;2023-04-03T03:27:09;10.25;;;5.65;;
50495;SDS011;38806;51.554;5.704;2023-04-03T03:29:10;11.77;;;6.30;;
50495;SDS011;38806;51.554;5.704;2023-04-03T03:31:10;11.00;;;5.47;;
50495;SDS011;38806;51.554;5.704;2023-04-03T03:33:11;14.25;;;6.72;;
50495;SDS011;38806;51.554;5.704;2023-04-03T03:35:11;13.05;;;6.63;;
50495;SDS011;38806;51.554;5.704;2023-04-03T03:37:11;12.88;;;5.80;;
50495;SDS011;38806;51.554;5.704;2023-04-03T03:39:11;9.15;;;6.10;;
50495;SDS011;38806;51.554;5.704;2023-04-03T03:41:11;11.48;;;5.75;;
50495;SDS011;38806;51.554;5.704;2023-04-03T03:43:12;8.88;;;5.57;;
50495;SDS011;38806;51.554;5.704;2023-04-03T03:45:12;9.13;;;5.20;;
50495;SDS011;38806;51.554;5.704;2023-04-03T03:47:12;10.43;;;6.00;;
50495;SDS011;38806;51.554;5.704;2023-04-03T03:49:12;6.85;;;4.25;;
50495;SDS011;38806;51.554;5.704;2023-04-03T03:51:12;12.00;;;6.40;;
50495;SDS011;38806;51.554;5.704;2023-04-03T03:53:13;12.68;;;6.13;;
50495;SDS011;38806;51.554;5.704;2023-04-03T03:55:13;12.88;;;5.35;;
50495;SDS011;38806;51.554;5.704;2023-04-03T03:57:13;10.98;;;5.93;;
50495;SDS011;38806;51.554;5.704;2023-04-03T03:59:13;11.13;;;5.72;;
50495;SDS011;38806;51.554;5.704;2023-04-03T04:01:13;10.80;;;6.18;;
50495;SDS011;38806;51.554;5.704;2023-04-03T04:03:14;10.75;;;5.72;;
50495;SDS011;38806;51.554;5.704;2023-04-03T04:05:14;11.48;;;6.28;;
50495;SDS011;38806;51.554;5.704;2023-04-03T04:07:14;12.52;;;6.22;;
50495;SDS011;38806;51.554;5.704;2023-04-03T04:09:15;14.25;;;5.38;;
50495;SDS011;38806;51.554;5.704;2023-04-03T04:11:15;9.10;;;5.78;;
50495;SDS011;38806;51.554;5.704;2023-04-03T04:13:15;11.10;;;5.63;;
50495;SDS011;38806;51.554;5.704;2023-04-03T04:15:15;13.18;;;5.90;;
50495;SDS011;38806;51.554;5.704;2023-04-03T04:17:16;10.57;;;5.63;;
50495;SDS011;38806;51.554;5.704;2023-04-03T04:19:16;10.95;;;4.43;;
50495;SDS011;38806;51.554;5.704;2023-04-03T04:21:16;9.50;;;5.88;;
50495;SDS011;38806;51.554;5.704;2023-04-03T04:23:17;9.98;;;4.68;;
50495;SDS011;38806;51.554;5.704;2023-04-03T04:25:17;7.53;;;4.35;;
50495;SDS011;38806;51.554;5.704;2023-04-03T04:27:17;7.80;;;5.25;;
50495;SDS011;38806;51.554;5.704;2023-04-03T04:29:17;9.95;;;5.40;;
50495;SDS011;38806;51.554;5.704;2023-04-03T04:31:18;7.53;;;4.88;;
50495;SDS011;38806;51.554;5.704;2023-04-03T04:33:18;10.88;;;5.03;;
50495;SDS011;38806;51.554;5.704;2023-04-03T04:35:18;9.82;;;4.85;;
50495;SDS011;38806;51.554;5.704;2023-04-03T04:37:18;12.65;;;4.38;;
50495;SDS011;38806;51.554;5.704;2023-04-03T04:39:18;11.55;;;5.22;;
50495;SDS011;38806;51.554;5.704;2023-04-03T04:41:22;14.85;;;6.60;;
50495;SDS011;38806;51.554;5.704;2023-04-03T04:43:22;10.85;;;4.93;;
50495;SDS011;38806;51.554;5.704;2023-04-03T04:45:23;14.50;;;6.55;;
50495;SDS011;38806;51.554;5.704;2023-04-03T04:47:23;14.30;;;4.95;;
50495;SDS011;38806;51.554;5.704;2023-04-03T04:49:23;10.07;;;6.18;;
50495;SDS011;38806;51.554;5.704;2023-04-03T04:51:23;9.13;;;5.28;;
50495;SDS011;38806;51.554;5.704;2023-04-03T04:53:23;9.18;;;4.45;;
50495;SDS011;38806;51.554;5.704;2023-04-03T04:55:24;10.93;;;5.57;;
50495;SDS011;38806;51.554;5.704;2023-04-03T04:57:24;13.88;;;5.28;;
50495;SDS011;38806;51.554;5.704;2023-04-03T04:59:25;9.75;;;6.93;;
50495;SDS011;38806;51.554;5.704;2023-04-03T05:01:25;8.80;;;5.78;;
50495;SDS011;38806;51.554;5.704;2023-04-03T05:03:25;10.95;;;5.25;;
50495;SDS011;38806;51.554;5.704;2023-04-03T05:05:25;10.60;;;4.68;;
50495;SDS011;38806;51.554;5.704;2023-04-03T05:07:25;7.95;;;4.72;;
50495;SDS011;38806;51.554;5.704;2023-04-03T05:09:26;11.45;;;5.80;;
50495;SDS011;38806;51.554;5.704;2023-04-03T05:11:26;10.43;;;5.03;;
50495;SDS011;38806;51.554;5.704;2023-04-03T05:13:26;12.65;;;5.95;;
50495;SDS011;38806;51.554;5.704;2023-04-03T05:15:26;14.50;;;5.68;;
50495;SDS011;38806;51.554;5.704;2023-04-03T05:17:27;9.70;;;5.53;;
50495;SDS011;38806;51.554;5.704;2023-04-03T05:19:27;10.52;;;5.38;;
50495;SDS011;38806;51.554;5.704;2023-04-03T05:21:27;9.20;;;4.55;;
50495;SDS011;38806;51.554;5.704;2023-04-03T05:23:31;13.70;;;6.65;;
50495;SDS011;38806;51.554;5.704;2023-04-03T05:25:32;8.93;;;5.32;;
50495;SDS011;38806;51.554;5.704;2023-04-03T05:27:32;13.15;;;6.00;;
50495;SDS011;38806;51.554;5.704;2023-04-03T05:29:32;9.88;;;6.05;;
50495;SDS011;38806;51.554;5.704;2023-04-03T05:31:32;10.93;;;5.70;;
50495;SDS011;38806;51.554;5.704;2023-04-03T05:33:32;10.40;;;6.20;;
50495;SDS011;38806;51.554;5.704;2023-04-03T05:35:33;12.65;;;5.97;;
50495;SDS011;38806;51.554;5.704;2023-04-03T05:37:35;11.30;;;5.32;;
50495;SDS011;38806;51.554;5.704;2023-04-03T05:39:35;8.63;;;4.72;;
50495;SDS011;38806;51.554;5.704;2023-04-03T05:41:36;10.07;;;4.93;;
50495;SDS011;38806;51.554;5.704;2023-04-03T05:43:36;8.63;;;5.43;;
50495;SDS011;38806;51.554;5.704;2023-04-03T05:45:38;8.88;;;4.88;;
50495;SDS011;38806;51.554;5.704;2023-04-03T05:47:38;13.18;;;4.55;;
50495;SDS011;38806;51.554;5.704;2023-04-03T05:49:39;12.65;;;4.85;;
50495;SDS011;38806;51.554;5.704;2023-04-03T05:51:42;10.13;;;4.55;;
50495;SDS011;38806;51.554;5.704;2023-04-03T05:53:44;11.55;;;4.55;;
50495;SDS011;38806;51.554;5.704;2023-04-03T05:55:45;7.25;;;4.03;;
50495;SDS011;38806;51.554;5.704;2023-04-03T05:57:45;12.30;;;5.72;;
50495;SDS011;38806;51.554;5.704;2023-04-03T05:59:46;9.85;;;7.57;;
50495;SDS011;38806;51.554;5.704;2023-04-03T06:01:46;12.20;;;5.43;;
50495;SDS011;38806;51.554;5.704;2023-04-03T06:03:47;9.57;;;5.03;;
50495;SDS011;38806;51.554;5.704;2023-04-03T06:05:47;13.40;;;6.03;;
50495;SDS011;38806;51.554;5.704;2023-04-03T06:07:47;15.57;;;4.40;;
50495;SDS011;38806;51.554;5.704;2023-04-03T06:09:50;13.55;;;6.72;;
50495;SDS011;38806;51.554;5.704;2023-04-03T06:11:51;8.65;;;4.88;;
50495;SDS011;38806;51.554;5.704;2023-04-03T06:13:52;9.70;;;4.82;;
50495;SDS011;38806;51.554;5.704;2023-04-03T06:15:52;11.05;;;4.75;;
50495;SDS011;38806;51.554;5.704;2023-04-03T06:17:52;9.25;;;4.88;;
50495;SDS011;38806;51.554;5.704;2023-04-03T06:19:52;10.10;;;4.97;;
50495;SDS011;38806;51.554;5.704;2023-04-03T06:21:53;11.07;;;4.68;;
50495;SDS011;38806;51.554;5.704;2023-04-03T06:23:53;11.00;;;4.82;;
50495;SDS011;38806;51.554;5.704;2023-04-03T06:25:53;9.43;;;5.13;;
50495;SDS011;38806;51.554;5.704;2023-04-03T06:27:54;7.95;;;5.13;;
50495;SDS011;38806;51.554;5.704;2023-04-03T06:29:55;9.43;;;5.15;;
50495;SDS011;38806;51.554;5.704;2023-04-03T06:31:55;12.80;;;5.43;;
50495;SDS011;38806;51.554;5.704;2023-04-03T06:33:55;8.65;;;4.28;;
50495;SDS011;38806;51.554;5.704;2023-04-03T06:35:57;10.38;;;6.32;;
50495;SDS011;38806;51.554;5.704;2023-04-03T06:37:57;12.32;;;4.95;;
50495;SDS011;38806;51.554;5.704;2023-04-03T06:39:58;10.68;;;5.35;;
50495;SDS011;38806;51.554;5.704;2023-04-03T06:41:58;7.57;;;5.78;;
50495;SDS011;38806;51.554;5.704;2023-04-03T06:43:58;9.30;;;5.75;;
50495;SDS011;38806;51.554;5.704;2023-04-03T06:45:58;9.23;;;5.20;;
50495;SDS011;38806;51.554;5.704;2023-04-03T06:47:59;13.50;;;6.45;;
50495;SDS011;38806;51.554;5.704;2023-04-03T06:49:59;12.80;;;5.30;;
50495;SDS011;38806;51.554;5.704;2023-04-03T06:52:00;10.82;;;4.60;;
50495;SDS011;38806;51.554;5.704;2023-04-03T06:54:00;7.80;;;3.92;;
50495;SDS011;38806;51.554;5.704;2023-04-03T06:56:00;9.40;;;4.97;;
50495;SDS011;38806;51.554;5.704;2023-04-03T06:58:01;12.27;;;4.07;;
50495;SDS011;38806;51.554;5.704;2023-04-03T07:00:02;7.38;;;3.40;;
50495;SDS011;38806;51.554;5.704;2023-04-03T07:02:04;9.98;;;3.85;;
50495;SDS011;38806;51.554;5.704;2023-04-03T07:04:04;7.57;;;4.10;;
50495;SDS011;38806;51.554;5.704;2023-04-03T07:06:04;9.05;;;3.97;;
50495;SDS011;38806;51.554;5.704;2023-04-03T07:08:05;8.52;;;4.63;;
50495;SDS011;38806;51.554;5.704;2023-04-03T07:10:06;12.40;;;4.07;;
50495;SDS011;38806;51.554;5.704;2023-04-03T07:12:07;13.48;;;4.88;;
50495;SDS011;38806;51.554;5.704;2023-04-03T07:14:07;6.07;;;4.40;;
50495;SDS011;38806;51.554;5.704;2023-04-03T07:16:07;14.68;;;4.57;;
50495;SDS011;38806;51.554;5.704;2023-04-03T07:18:08;9.50;;;4.07;;
50495;SDS011;38806;51.554;5.704;2023-04-03T07:20:08;13.80;;;3.53;;
50495;SDS011;38806;51.554;5.704;2023-04-03T07:22:08;11.35;;;4.05;;
50495;SDS011;38806;51.554;5.704;2023-04-03T07:24:09;11.75;;;4.55;;
50495;SDS011;38806;51.554;5.704;2023-04-03T07:26:09;7.18;;;4.07;;
50495;SDS011;38806;51.554;5.704;2023-04-03T07:28:09;7.28;;;3.53;;
50495;SDS011;38806;51.554;5.704;2023-04-03T07:30:10;8.13;;;3.58;;
50495;SDS011;38806;51.554;5.704;2023-04-03T07:32:10;7.18;;;2.90;;
50495;SDS011;38806;51.554;5.704;2023-04-03T07:34:10;10.10;;;3.42;;
50495;SDS011;38806;51.554;5.704;2023-04-03T07:36:14;10.40;;;3.20;;
50495;SDS011;38806;51.554;5.704;2023-04-03T07:38:15;5.78;;;3.20;;
50495;SDS011;38806;51.554;5.704;2023-04-03T07:40:16;9.48;;;3.45;;
50495;SDS011;38806;51.554;5.704;2023-04-03T07:42:16;10.80;;;3.30;;
50495;SDS011;38806;51.554;5.704;2023-04-03T07:44:17;10.40;;;4.55;;
50495;SDS011;38806;51.554;5.704;2023-04-03T07:46:17;9.40;;;4.85;;
50495;SDS011;38806;51.554;5.704;2023-04-03T07:48:18;7.50;;;4.15;;
50495;SDS011;38806;51.554;5.704;2023-04-03T07:50:18;11.52;;;2.85;;
50495;SDS011;38806;51.554;5.704;2023-04-03T07:52:18;7.47;;;3.20;;
50495;SDS011;38806;51.554;5.704;2023-04-03T07:54:19;7.32;;;2.72;;
50495;SDS011;38806;51.554;5.704;2023-04-03T07:56:19;7.13;;;2.83;;
50495;SDS011;38806;51.554;5.704;2023-04-03T07:58:20;6.80;;;2.83;;
50495;SDS011;38806;51.554;5.704;2023-04-03T08:00:20;7.53;;;2.72;;
50495;SDS011;38806;51.554;5.704;2023-04-03T08:02:21;6.50;;;3.33;;
50495;SDS011;38806;51.554;5.704;2023-04-03T08:04:22;5.15;;;2.25;;
50495;SDS011;38806;51.554;5.704;2023-04-03T08:06:22;12.32;;;3.05;;
50495;SDS011;38806;51.554;5.704;2023-04-03T08:08:23;5.80;;;2.05;;
50495;SDS011;38806;51.554;5.704;2023-04-03T08:10:23;7.18;;;3.42;;
50495;SDS011;38806;51.554;5.704;2023-04-03T08:12:23;6.65;;;3.38;;
50495;SDS011;38806;51.554;5.704;2023-04-03T08:14:24;5.13;;;2.97;;
50495;SDS011;38806;51.554;5.704;2023-04-03T08:16:24;7.00;;;2.85;;
50495;SDS011;38806;51.554;5.704;2023-04-03T08:18:27;5.72;;;2.25;;
50495;SDS011;38806;51.554;5.704;2023-04-03T08:20:28;8.38;;;2.88;;
50495;SDS011;38806;51.554;5.704;2023-04-03T08:22:29;5.75;;;2.42;;
50495;SDS011;38806;51.554;5.704;2023-04-03T08:24:29;4.20;;;2.42;;
50495;SDS011;38806;51.554;5.704;2023-04-03T08:26:30;10.15;;;2.47;;
50495;SDS011;38806;51.554;5.704;2023-04-03T08:28:30;5.40;;;2.25;;
50495;SDS011;38806;51.554;5.704;2023-04-03T08:30:30;6.20;;;2.55;;
50495;SDS011;38806;51.554;5.704;2023-04-03T08:32:30;7.15;;;1.80;;
50495;SDS011;38806;51.554;5.704;2023-04-03T08:34:31;3.22;;;2.35;;
50495;SDS011;38806;51.554;5.704;2023-04-03T08:36:34;5.00;;;1.92;;
50495;SDS011;38806;51.554;5.704;2023-04-03T08:38:35;4.20;;;2.10;;
50495;SDS011;38806;51.554;5.704;2023-04-03T08:40:37;7.00;;;2.10;;
50495;SDS011;38806;51.554;5.704;2023-04-03T08:42:46;3.35;;;1.48;;
50495;SDS011;38806;51.554;5.704;2023-04-03T08:44:59;4.53;;;1.70;;
50495;SDS011;38806;51.554;5.704;2023-04-03T08:47:44;5.32;;;2.78;;
50495;SDS011;38806;51.554;5.704;2023-04-03T08:49:32;5.63;;;2.00;;
50495;SDS011;38806;51.554;5.704;2023-04-03T08:51:32;2.55;;;1.13;;
50495;SDS011;38806;51.554;5.704;2023-04-03T08:53:33;6.88;;;1.30;;
50495;SDS011;38806;51.554;5.704;2023-04-03T08:55:39;3.35;;;1.65;;
50495;SDS011;38806;51.554;5.704;2023-04-03T08:57:40;8.05;;;1.33;;
50495;SDS011;38806;51.554;5.704;2023-04-03T08:59:42;4.75;;;1.20;;
50495;SDS011;38806;51.554;5.704;2023-04-03T09:01:42;4.35;;;1.20;;
50495;SDS011;38806;51.554;5.704;2023-04-03T09:03:43;2.78;;;0.95;;
50495;SDS011;38806;51.554;5.704;2023-04-03T09:07:44;9.53;;;1.17;;
50495;SDS011;38806;51.554;5.704;2023-04-03T09:09:45;4.32;;;1.63;;
50495;SDS011;38806;51.554;5.704;2023-04-03T09:18:39;3.80;;;0.90;;
50495;SDS011;38806;51.554;5.704;2023-04-03T09:22:42;4.10;;;1.50;;
50495;SDS011;38806;51.554;5.704;2023-04-03T09:24:45;4.05;;;1.25;;
50495;SDS011;38806;51.554;5.704;2023-04-03T09:27:00;11.63;;;1.52;;
50495;SDS011;38806;51.554;5.704;2023-04-03T09:29:05;3.35;;;0.82;;
50495;SDS011;38806;51.554;5.704;2023-04-03T09:31:13;5.80;;;2.20;;
50495;SDS011;38806;51.554;5.704;2023-04-03T09:33:14;3.72;;;0.90;;
50495;SDS011;38806;51.554;5.704;2023-04-03T09:37:33;2.72;;;0.82;;
50495;SDS011;38806;51.554;5.704;2023-04-03T09:39:48;4.75;;;1.65;;
50495;SDS011;38806;51.554;5.704;2023-04-03T09:43:55;3.80;;;1.10;;
50495;SDS011;38806;51.554;5.704;2023-04-03T09:45:56;6.65;;;2.03;;
50495;SDS011;38806;51.554;5.704;2023-04-03T09:48:17;2.03;;;0.68;;
50495;SDS011;38806;51.554;5.704;2023-04-03T09:50:19;3.38;;;0.80;;
50495;SDS011;38806;51.554;5.704;2023-04-03T09:52:24;3.00;;;1.10;;
50495;SDS011;38806;51.554;5.704;2023-04-03T09:56:31;3.38;;;0.88;;
50495;SDS011;38806;51.554;5.704;2023-04-03T09:58:38;4.57;;;1.67;;
50495;SDS011;38806;51.554;5.704;2023-04-03T10:00:40;3.20;;;1.23;;
50495;SDS011;38806;51.554;5.704;2023-04-03T10:02:40;5.32;;;1.48;;
50495;SDS011;38806;51.554;5.704;2023-04-03T10:04:42;3.80;;;0.65;;
50495;SDS011;38806;51.554;5.704;2023-04-03T10:06:43;2.13;;;1.37;;
50495;SDS011;38806;51.554;5.704;2023-04-03T10:08:46;2.72;;;1.10;;
50495;SDS011;38806;51.554;5.704;2023-04-03T10:13:12;1.67;;;0.60;;
50495;SDS011;38806;51.554;5.704;2023-04-03T10:15:14;1.42;;;0.63;;
50495;SDS011;38806;51.554;5.704;2023-04-03T10:17:21;1.98;;;0.93;;
50495;SDS011;38806;51.554;5.704;2023-04-03T10:21:40;2.30;;;0.50;;
50495;SDS011;38806;51.554;5.704;2023-04-03T10:23:48;1.65;;;0.85;;
50495;SDS011;38806;51.554;5.704;2023-04-03T10:32:33;1.77;;;0.73;;
50495;SDS011;38806;51.554;5.704;2023-04-03T10:34:43;7.60;;;0.98;;
50495;SDS011;38806;51.554;5.704;2023-04-03T10:38:50;2.38;;;0.60;;
50495;SDS011;38806;51.554;5.704;2023-04-03T10:40:54;2.10;;;0.77;;
50495;SDS011;38806;51.554;5.704;2023-04-03T10:49:04;2.35;;;0.80;;
50495;SDS011;38806;51.554;5.704;2023-04-03T10:53:39;1.60;;;0.60;;
50495;SDS011;38806;51.554;5.704;2023-04-03T10:55:45;2.75;;;0.68;;
50495;SDS011;38806;51.554;5.704;2023-04-03T10:57:48;1.08;;;0.50;;
50495;SDS011;38806;51.554;5.704;2023-04-03T10:59:57;2.33;;;0.50;;
50495;SDS011;38806;51.554;5.704;2023-04-03T11:02:06;3.30;;;0.90;;
50495;SDS011;38806;51.554;5.704;2023-04-03T11:04:07;0.90;;;0.40;;
50495;SDS011;38806;51.554;5.704;2023-04-03T11:06:10;1.42;;;0.98;;
50495;SDS011;38806;51.554;5.704;2023-04-03T11:08:13;1.88;;;0.68;;
50495;SDS011;38806;51.554;5.704;2023-04-03T11:10:22;3.25;;;0.60;;
50495;SDS011;38806;51.554;5.704;2023-04-03T11:12:26;1.23;;;0.50;;
50495;SDS011;38806;51.554;5.704;2023-04-03T11:14:30;2.40;;;0.80;;
50495;SDS011;38806;51.554;5.704;2023-04-03T11:16:33;1.27;;;0.70;;
50495;SDS011;38806;51.554;5.704;2023-04-03T11:20:37;1.40;;;0.47;;
50495;SDS011;38806;51.554;5.704;2023-04-03T11:22:41;2.65;;;0.50;;
50495;SDS011;38806;51.554;5.704;2023-04-03T11:24:43;2.35;;;0.70;;
50495;SDS011;38806;51.554;5.704;2023-04-03T11:26:47;1.08;;;0.50;;
50495;SDS011;38806;51.554;5.704;2023-04-03T11:28:53;2.03;;;1.35;;
50495;SDS011;38806;51.554;5.704;2023-04-03T11:34:58;4.80;;;0.83;;
50495;SDS011;38806;51.554;5.704;2023-04-03T11:37:00;1.00;;;0.88;;
50495;SDS011;38806;51.554;5.704;2023-04-03T11:39:05;3.03;;;0.80;;
50495;SDS011;38806;51.554;5.704;2023-04-03T11:41:08;2.08;;;0.75;;
50495;SDS011;38806;51.554;5.704;2023-04-03T11:47:43;3.17;;;0.80;;
50495;SDS011;38806;51.554;5.704;2023-04-03T11:51:50;2.22;;;0.82;;
50495;SDS011;38806;51.554;5.704;2023-04-03T11:53:51;1.52;;;0.70;;
50495;SDS011;38806;51.554;5.704;2023-04-03T11:59:57;3.90;;;1.25;;
50495;SDS011;38806;51.554;5.704;2023-04-03T12:01:57;4.03;;;1.48;;
50495;SDS011;38806;51.554;5.704;2023-04-03T12:04:05;2.65;;;1.00;;
50495;SDS011;38806;51.554;5.704;2023-04-03T12:08:21;3.42;;;1.00;;
50495;SDS011;38806;51.554;5.704;2023-04-03T12:10:24;1.83;;;0.90;;
50495;SDS011;38806;51.554;5.704;2023-04-03T12:12:32;3.50;;;1.00;;
50495;SDS011;38806;51.554;5.704;2023-04-03T12:14:33;2.22;;;0.70;;
50495;SDS011;38806;51.554;5.704;2023-04-03T12:16:41;4.87;;;1.27;;
50495;SDS011;38806;51.554;5.704;2023-04-03T12:18:43;2.35;;;1.00;;
50495;SDS011;38806;51.554;5.704;2023-04-03T12:20:54;4.55;;;0.98;;
50495;SDS011;38806;51.554;5.704;2023-04-03T12:23:37;3.88;;;1.30;;
50495;SDS011;38806;51.554;5.704;2023-04-03T12:27:40;3.08;;;1.27;;
50495;SDS011;38806;51.554;5.704;2023-04-03T12:34:15;3.50;;;1.00;;
50495;SDS011;38806;51.554;5.704;2023-04-03T12:36:18;2.97;;;1.38;;
50495;SDS011;38806;51.554;5.704;2023-04-03T12:45:09;2.88;;;0.93;;
50495;SDS011;38806;51.554;5.704;2023-04-03T12:47:17;3.50;;;1.33;;
50495;SDS011;38806;51.554;5.704;2023-04-03T12:51:37;2.97;;;1.45;;
50495;SDS011;38806;51.554;5.704;2023-04-03T12:53:37;5.25;;;1.40;;
50495;SDS011;38806;51.554;5.704;2023-04-03T12:55:38;2.08;;;0.75;;
50495;SDS011;38806;51.554;5.704;2023-04-03T12:57:38;4.60;;;1.10;;
50495;SDS011;38806;51.554;5.704;2023-04-03T12:59:39;2.57;;;1.03;;
50495;SDS011;38806;51.554;5.704;2023-04-03T13:01:40;2.30;;;0.88;;
50495;SDS011;38806;51.554;5.704;2023-04-03T13:03:42;2.03;;;1.10;;
50495;SDS011;38806;51.554;5.704;2023-04-03T13:05:44;2.00;;;1.10;;
50495;SDS011;38806;51.554;5.704;2023-04-03T13:07:44;3.72;;;1.35;;
50495;SDS011;38806;51.554;5.704;2023-04-03T13:09:55;3.35;;;1.60;;
50495;SDS011;38806;51.554;5.704;2023-04-03T13:14:15;3.47;;;1.15;;
50495;SDS011;38806;51.554;5.704;2023-04-03T13:16:16;2.60;;;1.10;;
50495;SDS011;38806;51.554;5.704;2023-04-03T13:18:27;5.07;;;1.30;;
50495;SDS011;38806;51.554;5.704;2023-04-03T13:20:28;2.95;;;1.02;;
50495;SDS011;38806;51.554;5.704;2023-04-03T13:22:33;5.70;;;1.67;;
50495;SDS011;38806;51.554;5.704;2023-04-03T13:24:38;5.20;;;2.22;;
50495;SDS011;38806;51.554;5.704;2023-04-03T13:26:39;3.80;;;1.50;;
50495;SDS011;38806;51.554;5.704;2023-04-03T13:28:40;3.45;;;1.10;;